Time;durP1;ratioP1;P1;durP2;ratioP2;P2;SDS_P1;SDS_P2;PMS_P1;PMS_P2;Temp;Humidity;BMP_temperature;BMP_pressure;BME280_temperature;BME280_humidity;BME280_pressure;Samples;Min_cycle;Max_cycle;Signal;HPM_P1;HPM_P2
2021/04/14 00:00:46;;;;;;;7.72;4.90;;;2.30;74.30;;;;;;5094260;28;20126;-36
2021/04/14 00:03:21;;;;;;;12.20;3.97;;;2.30;74.60;;;;;;5094416;28;20024;-35
2021/04/14 00:05:47;;;;;;;10.90;3.88;;;2.30;74.70;;;;;;5094236;28;20032;-36
2021/04/14 00:08:15;;;;;;;13.27;5.30;;;2.30;74.80;;;;;;5092888;28;20107;-35
2021/04/14 00:10:42;;;;;;;8.48;4.18;;;2.30;75.40;;;;;;5094444;28;20036;-35
2021/04/14 00:13:11;;;;;;;9.55;4.00;;;2.30;74.60;;;;;;5094314;28;20024;-35
2021/04/14 00:15:41;;;;;;;10.68;4.43;;;2.30;74.90;;;;;;5093992;28;20361;-36
2021/04/14 00:18:07;;;;;;;10.40;6.13;;;2.20;75.00;;;;;;5094741;28;20047;-36
2021/04/14 00:20:34;;;;;;;13.38;6.13;;;2.20;76.10;;;;;;5093906;28;20103;-35
2021/04/14 00:22:59;;;;;;;12.52;6.22;;;2.10;76.60;;;;;;5094120;28;20145;-36
2021/04/14 00:25:30;;;;;;;14.32;5.80;;;2.10;76.60;;;;;;5094707;28;20425;-36
2021/04/14 00:27:56;;;;;;;13.07;6.47;;;2.10;77.00;;;;;;5094049;28;20097;-34
2021/04/14 00:30:23;;;;;;;16.92;6.13;;;2.00;76.80;;;;;;5093931;28;20027;-35
2021/04/14 00:32:49;;;;;;;16.20;6.78;;;1.90;77.40;;;;;;5093809;28;20434;-35
2021/04/14 00:35:16;;;;;;;12.52;7.15;;;1.80;77.90;;;;;;5091966;28;20414;-35
2021/04/14 00:37:42;;;;;;;15.45;8.00;;;1.80;78.10;;;;;;5093509;28;20063;-35
2021/04/14 00:40:12;;;;;;;15.32;7.22;;;1.80;78.20;;;;;;5094107;28;20032;-35
2021/04/14 00:42:38;;;;;;;12.98;6.75;;;1.70;78.70;;;;;;5093865;28;20048;-37
2021/04/14 00:45:06;;;;;;;14.13;7.80;;;1.80;78.40;;;;;;5093639;28;20031;-35
2021/04/14 00:47:31;;;;;;;13.55;6.85;;;1.90;77.90;;;;;;5093306;28;20491;-35
2021/04/14 00:49:57;;;;;;;13.38;8.73;;;1.70;78.50;;;;;;5093332;28;20111;-35
2021/04/14 00:52:22;;;;;;;14.32;8.68;;;1.50;79.30;;;;;;5092427;28;20027;-35
2021/04/14 00:54:48;;;;;;;14.07;7.63;;;1.60;79.30;;;;;;5093544;28;20467;-35
2021/04/14 00:57:14;;;;;;;18.95;7.50;;;1.60;79.10;;;;;;5093543;28;20052;-36
2021/04/14 00:59:39;;;;;;;11.98;6.07;;;1.50;79.30;;;;;;5093376;28;20051;-35
2021/04/14 01:02:07;;;;;;;9.52;5.38;;;1.60;79.20;;;;;;5093002;28;20095;-35
2021/04/14 01:04:36;;;;;;;13.30;5.65;;;1.70;79.00;;;;;;5093055;28;20112;-35
2021/04/14 01:07:02;;;;;;;7.93;4.68;;;1.60;79.00;;;;;;5091672;28;20032;-35
2021/04/14 01:09:28;;;;;;;10.20;5.70;;;1.60;79.10;;;;;;5093103;28;20024;-35
2021/04/14 01:11:56;;;;;;;11.05;5.70;;;1.50;79.10;;;;;;5093157;28;20081;-35
2021/04/14 01:14:22;;;;;;;10.52;5.25;;;1.40;79.10;;;;;;5092893;28;20016;-35
2021/04/14 01:16:47;;;;;;;13.77;7.82;;;1.40;79.30;;;;;;5091490;28;20082;-35
2021/04/14 01:19:13;;;;;;;8.13;5.10;;;1.40;79.60;;;;;;5091500;28;20028;-35
2021/04/14 01:21:42;;;;;;;7.25;5.43;;;1.40;79.90;;;;;;5092819;28;20051;-35
2021/04/14 01:24:17;;;;;;;11.70;4.05;;;1.50;79.10;;;;;;5092637;28;20071;-35
2021/04/14 01:26:44;;;;;;;10.50;4.78;;;1.40;78.80;;;;;;5093012;28;20433;-35
2021/04/14 01:29:10;;;;;;;9.25;6.05;;;1.40;79.20;;;;;;5091619;28;20078;-35
2021/04/14 01:31:37;;;;;;;9.30;4.63;;;1.50;79.00;;;;;;5092843;28;20486;-35
2021/04/14 01:34:09;;;;;;;13.98;5.78;;;1.40;79.10;;;;;;5092933;28;20495;-35
2021/04/14 01:36:35;;;;;;;10.73;6.13;;;1.40;79.10;;;;;;5092899;28;20016;-36
2021/04/14 01:39:00;;;;;;;10.75;5.18;;;1.40;79.50;;;;;;5093299;28;20464;-36
2021/04/14 01:41:26;;;;;;;9.90;5.45;;;1.50;79.90;;;;;;5092870;28;20028;-36
2021/04/14 01:43:52;;;;;;;11.38;5.78;;;1.60;79.20;;;;;;5092955;28;20100;-36
2021/04/14 01:46:18;;;;;;;11.13;5.75;;;1.50;79.30;;;;;;5093278;28;20024;-34
2021/04/14 01:48:44;;;;;;;14.45;5.28;;;1.40;79.00;;;;;;5096512;28;20048;-35
2021/04/14 01:51:10;;;;;;;11.05;5.38;;;1.40;79.20;;;;;;5095424;28;20020;-35
2021/04/14 01:53:36;;;;;;;8.48;5.47;;;1.30;79.50;;;;;;5096158;28;20368;-35
2021/04/14 01:56:02;;;;;;;11.93;5.65;;;1.30;79.30;;;;;;5096458;28;20024;-34
2021/04/14 01:58:30;;;;;;;14.85;5.95;;;1.30;79.40;;;;;;5095090;28;20031;-34
2021/04/14 02:00:59;;;;;;;9.10;6.07;;;1.40;79.70;;;;;;5096353;28;20036;-35
2021/04/14 02:03:28;;;;;;;15.70;6.65;;;1.30;79.60;;;;;;5096202;28;20024;-35
2021/04/14 02:05:54;;;;;;;15.38;6.55;;;1.30;80.20;;;;;;5096610;28;20024;-37
2021/04/14 02:08:20;;;;;;;12.18;6.70;;;1.30;80.20;;;;;;5094990;28;20027;-34
2021/04/14 02:10:46;;;;;;;14.75;6.22;;;1.30;80.20;;;;;;5096187;28;20078;-35
2021/04/14 02:13:21;;;;;;;10.50;6.45;;;1.30;79.80;;;;;;5094852;28;20017;-34
2021/04/14 02:15:49;;;;;;;12.07;6.38;;;1.30;80.40;;;;;;5096452;28;20039;-36
2021/04/14 02:18:15;;;;;;;10.40;5.95;;;1.10;80.30;;;;;;5096150;28;20024;-34
2021/04/14 02:20:41;;;;;;;8.73;5.63;;;1.10;80.50;;;;;;5097171;28;20104;-34
2021/04/14 02:23:11;;;;;;;11.38;5.30;;;1.10;80.20;;;;;;5096093;28;20080;-34
2021/04/14 02:25:37;;;;;;;10.55;5.72;;;1.10;80.10;;;;;;5094803;28;20039;-36
2021/04/14 02:28:02;;;;;;;11.45;5.57;;;1.00;80.40;;;;;;5096152;28;20162;-34
2021/04/14 02:30:28;;;;;;;12.63;5.82;;;1.00;80.40;;;;;;5096206;28;20468;-35
2021/04/14 02:32:55;;;;;;;13.38;5.68;;;1.00;80.70;;;;;;5096080;28;20423;-35
2021/04/14 02:35:23;;;;;;;8.98;6.38;;;1.00;80.50;;;;;;5096084;28;20025;-35
2021/04/14 02:37:49;;;;;;;16.13;5.53;;;0.80;80.70;;;;;;5095984;28;20097;-35
2021/04/14 02:40:15;;;;;;;10.00;5.47;;;0.80;80.80;;;;;;5096084;28;20056;-35
2021/04/14 02:42:41;;;;;;;9.90;4.47;;;0.80;81.20;;;;;;5095626;28;20534;-35
2021/04/14 02:45:09;;;;;;;7.57;5.00;;;0.70;81.10;;;;;;5096017;28;20051;-36
2021/04/14 02:47:35;;;;;;;8.10;5.88;;;0.70;81.30;;;;;;5095620;28;20040;-35
2021/04/14 02:50:00;;;;;;;7.82;5.25;;;0.80;81.30;;;;;;5095419;28;20032;-35
2021/04/14 02:52:26;;;;;;;12.52;8.40;;;0.70;81.10;;;;;;5094922;28;20027;-35
2021/04/14 02:54:52;;;;;;;9.93;5.10;;;0.70;81.20;;;;;;5095376;28;20046;-35
2021/04/14 02:57:17;;;;;;;11.73;5.80;;;0.80;80.90;;;;;;5094933;28;20103;-35
2021/04/14 02:59:43;;;;;;;10.20;5.78;;;0.80;81.10;;;;;;5095346;28;20028;-35
2021/04/14 03:02:09;;;;;;;9.02;5.15;;;0.80;80.90;;;;;;5095598;28;20030;-36
2021/04/14 03:04:36;;;;;;;11.23;5.72;;;0.80;81.00;;;;;;5095448;28;20024;-36
2021/04/14 03:07:03;;;;;;;10.43;5.05;;;1.00;80.80;;;;;;5095192;28;20028;-36
2021/04/14 03:09:29;;;;;;;8.80;5.22;;;0.80;80.60;;;;;;5093784;28;20059;-36
2021/04/14 03:11:54;;;;;;;6.50;4.75;;;0.80;80.80;;;;;;5095422;28;20030;-36
2021/04/14 03:14:20;;;;;;;8.48;5.35;;;0.80;80.80;;;;;;5095327;28;20021;-36
2021/04/14 03:16:46;;;;;;;7.95;4.88;;;0.70;81.00;;;;;;5095345;28;20034;-36
2021/04/14 03:19:11;;;;;;;10.48;6.20;;;0.70;81.30;;;;;;5093731;28;20043;-36
2021/04/14 03:21:37;;;;;;;12.13;5.15;;;0.80;80.90;;;;;;5095148;28;20025;-36
2021/04/14 03:24:04;;;;;;;10.13;5.93;;;0.90;80.70;;;;;;5094872;28;20085;-34
2021/04/14 03:26:30;;;;;;;10.77;6.20;;;1.00;80.50;;;;;;5093390;28;20120;-34
2021/04/14 03:28:55;;;;;;;14.63;5.95;;;1.10;80.10;;;;;;5095012;28;20515;-35
2021/04/14 03:31:21;;;;;;;9.73;5.03;;;1.10;80.10;;;;;;5095055;28;20103;-34
2021/04/14 03:33:47;;;;;;;11.73;5.20;;;1.10;79.90;;;;;;5094664;28;20089;-35
2021/04/14 03:36:13;;;;;;;10.25;5.07;;;1.10;79.70;;;;;;5094915;28;20025;-35
2021/04/14 03:38:38;;;;;;;9.15;5.32;;;1.10;79.70;;;;;;5094911;28;20099;-35
2021/04/14 03:41:04;;;;;;;9.30;5.28;;;1.20;79.70;;;;;;5094586;28;20472;-35
2021/04/14 03:43:30;;;;;;;9.70;6.13;;;1.20;79.70;;;;;;5094559;28;20479;-35
2021/04/14 03:45:58;;;;;;;8.27;5.85;;;1.10;79.80;;;;;;5093265;28;20024;-35
2021/04/14 03:48:25;;;;;;;9.75;5.43;;;1.00;80.00;;;;;;5094299;28;20063;-35
2021/04/14 03:50:51;;;;;;;9.70;5.68;;;1.00;80.30;;;;;;5094295;28;20024;-35
2021/04/14 03:53:25;;;;;;;7.78;5.28;;;1.10;80.40;;;;;;5094252;28;20024;-35
2021/04/14 03:55:59;;;;;;;8.15;5.47;;;1.00;80.60;;;;;;5094556;28;20044;-35
2021/04/14 03:58:26;;;;;;;18.85;6.38;;;0.90;80.80;;;;;;5094251;28;20388;-35
2021/04/14 04:00:57;;;;;;;15.52;6.85;;;0.80;81.20;;;;;;5094501;28;20035;-35
2021/04/14 04:03:25;;;;;;;7.78;5.25;;;0.70;81.60;;;;;;5094467;28;20072;-35
2021/04/14 04:05:51;;;;;;;9.77;6.55;;;0.70;81.90;;;;;;5094678;28;20038;-35
2021/04/14 04:08:17;;;;;;;13.30;7.97;;;0.60;81.90;;;;;;5093813;28;20062;-35
2021/04/14 04:10:43;;;;;;;10.80;5.82;;;0.60;82.10;;;;;;5092256;28;20028;-35
2021/04/14 04:13:10;;;;;;;12.65;5.28;;;0.60;82.20;;;;;;5093957;28;20095;-35
2021/04/14 04:15:39;;;;;;;13.02;6.25;;;0.70;82.40;;;;;;5093796;28;20031;-36
2021/04/14 04:18:06;;;;;;;12.05;6.50;;;0.70;82.10;;;;;;5093863;28;20024;-36
2021/04/14 04:20:32;;;;;;;11.40;5.97;;;0.80;81.90;;;;;;5093856;28;20365;-36
2021/04/14 04:23:00;;;;;;;17.05;7.18;;;0.80;81.60;;;;;;5094048;28;20058;-37
2021/04/14 04:25:25;;;;;;;10.95;6.50;;;0.80;82.00;;;;;;5094070;28;20464;-35
2021/04/14 04:27:51;;;;;;;11.02;4.68;;;0.60;82.00;;;;;;5093703;28;20077;-35
2021/04/14 04:30:17;;;;;;;10.70;6.22;;;0.70;81.70;;;;;;5093892;28;20100;-34
2021/04/14 04:32:43;;;;;;;7.85;5.68;;;0.70;81.60;;;;;;5093945;28;20020;-35
2021/04/14 04:35:11;;;;;;;11.25;5.80;;;0.70;81.60;;;;;;5093641;28;20394;-35
2021/04/14 04:37:37;;;;;;;15.00;5.97;;;0.60;81.90;;;;;;5093763;28;20107;-35
2021/04/14 04:40:05;;;;;;;12.82;6.38;;;0.70;81.90;;;;;;5093042;28;20474;-36
2021/04/14 04:42:31;;;;;;;11.52;5.97;;;0.70;81.90;;;;;;5093555;28;20105;-35
2021/04/14 04:44:57;;;;;;;12.38;6.50;;;0.80;81.90;;;;;;5093676;28;20479;-35
2021/04/14 04:47:22;;;;;;;14.65;7.55;;;0.80;81.90;;;;;;5093224;28;20044;-35
2021/04/14 04:49:48;;;;;;;12.77;6.85;;;0.90;81.90;;;;;;5093179;28;20506;-34
2021/04/14 04:52:14;;;;;;;11.95;6.68;;;0.80;81.90;;;;;;5091891;28;20024;-34
2021/04/14 04:54:39;;;;;;;15.23;7.13;;;1.00;81.60;;;;;;5093607;28;20024;-35
2021/04/14 04:57:05;;;;;;;14.27;6.18;;;1.00;81.10;;;;;;5093910;28;20044;-34
2021/04/14 04:59:31;;;;;;;8.82;6.07;;;0.80;81.80;;;;;;5093149;28;20021;-34
2021/04/14 05:02:00;;;;;;;11.95;6.07;;;0.70;81.90;;;;;;5092151;28;20032;-34
2021/04/14 05:04:27;;;;;;;11.25;6.30;;;0.80;82.20;;;;;;5093156;28;20027;-35
2021/04/14 05:06:53;;;;;;;17.48;7.78;;;0.80;82.10;;;;;;5091949;28;20030;-35
2021/04/14 05:09:19;;;;;;;11.20;6.40;;;0.80;81.90;;;;;;5093129;28;20480;-34
2021/04/14 05:11:47;;;;;;;12.15;6.65;;;0.90;81.90;;;;;;5093117;28;20089;-34
2021/04/14 05:14:13;;;;;;;13.57;6.28;;;1.00;81.40;;;;;;5093129;28;20024;-35
2021/04/14 05:16:39;;;;;;;13.57;6.05;;;0.90;81.50;;;;;;5093349;28;20435;-35
2021/04/14 05:19:04;;;;;;;8.30;5.25;;;1.00;81.70;;;;;;5092993;28;20027;-36
2021/04/14 05:21:32;;;;;;;13.27;5.40;;;1.00;81.40;;;;;;5095205;28;20384;-35
2021/04/14 05:23:58;;;;;;;12.13;6.50;;;1.00;81.60;;;;;;5097180;28;20028;-35
2021/04/14 05:26:25;;;;;;;12.43;6.95;;;1.20;81.20;;;;;;5095706;28;20024;-36
2021/04/14 05:28:51;;;;;;;13.60;6.15;;;1.10;81.60;;;;;;5097170;28;20027;-35
2021/04/14 05:31:17;;;;;;;9.02;6.03;;;1.30;81.40;;;;;;5096984;28;20028;-35
2021/04/14 05:33:42;;;;;;;16.83;6.80;;;1.30;80.90;;;;;;5096879;28;20019;-36
2021/04/14 05:36:08;;;;;;;20.30;7.22;;;1.60;80.30;;;;;;5096823;28;20024;-36
2021/04/14 05:38:34;;;;;;;10.93;6.13;;;1.70;79.60;;;;;;5097008;28;20032;-34
2021/04/14 05:41:00;;;;;;;8.80;5.25;;;1.80;79.60;;;;;;5096773;28;20055;-35
2021/04/14 05:43:30;;;;;;;10.90;5.80;;;1.80;79.10;;;;;;5096788;28;20081;-36
2021/04/14 05:45:58;;;;;;;14.13;6.40;;;1.80;79.70;;;;;;5096765;28;20020;-36
2021/04/14 05:48:24;;;;;;;12.70;7.03;;;1.80;79.20;;;;;;5096390;28;20040;-36
2021/04/14 05:50:51;;;;;;;14.00;6.72;;;1.90;79.40;;;;;;5096420;28;20020;-36
2021/04/14 05:53:18;;;;;;;13.23;6.00;;;2.10;79.00;;;;;;5097213;28;20020;-36
2021/04/14 05:55:44;;;;;;;11.40;6.60;;;2.40;77.90;;;;;;5095218;28;20430;-36
2021/04/14 05:58:10;;;;;;;9.50;5.68;;;2.50;77.50;;;;;;5096581;28;20093;-34
2021/04/14 06:00:36;;;;;;;10.65;6.50;;;2.70;77.30;;;;;;5096376;28;20081;-35
2021/04/14 06:03:01;;;;;;;10.70;6.15;;;2.80;77.00;;;;;;5096281;28;20024;-35
2021/04/14 06:05:27;;;;;;;13.38;6.32;;;3.10;75.80;;;;;;5096265;28;20112;-35
2021/04/14 06:07:53;;;;;;;13.13;6.15;;;3.30;74.80;;;;;;5094858;28;20592;-35
2021/04/14 06:10:21;;;;;;;10.80;6.53;;;3.40;74.20;;;;;;5096335;28;20372;-35
2021/04/14 06:12:52;;;;;;;19.80;8.70;;;3.20;74.50;;;;;;5095667;28;20028;-35
2021/04/14 06:15:22;;;;;;;15.82;8.00;;;3.20;74.60;;;;;;5095730;28;20162;-35
2021/04/14 06:17:47;;;;;;;14.57;7.38;;;3.30;74.50;;;;;;5096327;28;20023;-35
2021/04/14 06:20:16;;;;;;;17.52;7.93;;;3.50;74.20;;;;;;5095918;28;20032;-35
2021/04/14 06:22:41;;;;;;;13.70;6.60;;;3.80;73.50;;;;;;5095678;28;20054;-35
2021/04/14 06:25:12;;;;;;;15.10;6.55;;;4.10;71.90;;;;;;5095849;28;20357;-36
2021/04/14 06:27:50;;;;;;;11.98;6.68;;;4.00;71.60;;;;;;5095921;28;20107;-36
2021/04/14 06:30:19;;;;;;;13.93;7.38;;;3.90;71.80;;;;;;5096034;28;20395;-37
2021/04/14 06:32:45;;;;;;;22.60;9.05;;;3.90;71.90;;;;;;5093652;28;20024;-36
2021/04/14 06:35:12;;;;;;;13.02;7.63;;;3.90;72.30;;;;;;5096011;28;20456;-36
2021/04/14 06:37:38;;;;;;;25.13;7.63;;;4.30;71.20;;;;;;5095547;28;20047;-36
2021/04/14 06:43:36;;;;;;;14.52;7.88;;;4.60;69.80;;;;;;5095361;28;20398;-36
2021/04/14 06:46:15;;;;;;;18.00;7.68;;;4.50;70.60;;;;;;5095568;28;20021;-36
2021/04/14 06:48:40;;;;;;;16.50;8.73;;;4.30;72.20;;;;;;5093645;28;20377;-36
2021/04/14 06:51:15;;;;;;;17.65;7.55;;;4.20;73.10;;;;;;5095126;28;20020;-36
2021/04/14 06:54:01;;;;;;;16.20;7.78;;;4.30;73.10;;;;;;5095266;28;20081;-36
2021/04/14 06:56:28;;;;;;;11.13;6.93;;;4.50;73.20;;;;;;5095010;28;20028;-35
2021/04/14 06:59:05;;;;;;;9.50;6.45;;;4.60;70.20;;;;;;5094748;28;20149;-36
2021/04/14 07:01:42;;;;;;;11.23;6.05;;;4.90;69.30;;;;;;5095432;28;20494;-36
2021/04/14 07:04:48;;;;;;;13.27;6.70;;;4.90;67.80;;;;;;5095187;28;20024;-36
2021/04/14 07:07:24;;;;;;;15.80;8.20;;;4.90;66.40;;;;;;5094515;28;20047;-35
2021/04/14 07:09:53;;;;;;;13.60;6.82;;;5.10;66.10;;;;;;5094936;28;20028;-36
2021/04/14 07:12:22;;;;;;;12.38;6.38;;;5.40;64.30;;;;;;5095446;28;20024;-35
2021/04/14 07:14:51;;;;;;;12.70;6.47;;;5.30;64.40;;;;;;5094702;28;20039;-35
2021/04/14 07:17:25;;;;;;;13.85;6.65;;;5.30;64.80;;;;;;5093597;28;20044;-37
2021/04/14 07:20:06;;;;;;;16.50;6.30;;;5.40;64.90;;;;;;5094317;28;20425;-35
2021/04/14 07:23:06;;;;;;;10.23;6.55;;;5.80;63.70;;;;;;5093193;28;20068;-35
2021/04/14 07:25:46;;;;;;;11.65;7.07;;;6.10;63.20;;;;;;5094546;28;20031;-35
2021/04/14 07:28:33;;;;;;;12.68;7.85;;;5.50;65.70;;;;;;5094364;28;20028;-35
2021/04/14 07:31:11;;;;;;;18.80;7.97;;;5.10;67.50;;;;;;5094480;28;20074;-38
2021/04/14 07:33:45;;;;;;;18.20;9.38;;;4.80;68.80;;;;;;5094541;28;20032;-38
2021/04/14 07:36:27;;;;;;;13.07;7.95;;;4.90;69.40;;;;;;5094380;28;20020;-36
2021/04/14 07:39:13;;;;;;;13.57;7.82;;;4.80;69.40;;;;;;5094582;28;20034;-36
2021/04/14 07:41:57;;;;;;;11.35;6.82;;;4.80;69.80;;;;;;5094248;28;20111;-36
2021/04/14 07:44:41;;;;;;;14.15;7.85;;;4.70;70.50;;;;;;5094446;28;20024;-37
2021/04/14 07:47:09;;;;;;;16.27;7.85;;;4.80;70.20;;;;;;5094049;28;20178;-45
2021/04/14 07:49:36;;;;;;;13.50;7.93;;;5.20;69.90;;;;;;5094124;28;20096;-37
2021/04/14 07:52:04;;;;;;;15.57;7.28;;;5.20;70.20;;;;;;5093809;28;20020;-37
2021/04/14 07:54:46;;;;;;;10.70;6.78;;;5.10;70.80;;;;;;5091915;28;20024;-35
2021/04/14 07:57:13;;;;;;;10.50;7.60;;;5.30;69.80;;;;;;5093496;28;20028;-35
2021/04/14 07:59:43;;;;;;;14.57;8.95;;;5.20;70.50;;;;;;5094195;28;20056;-38
2021/04/14 08:02:14;;;;;;;14.13;8.05;;;4.90;71.30;;;;;;5093739;28;20028;-36
2021/04/14 08:04:41;;;;;;;10.10;7.57;;;5.00;71.20;;;;;;5093570;28;20111;-37
2021/04/14 08:07:17;;;;;;;17.50;7.95;;;5.10;71.40;;;;;;5094121;28;20166;-37
2021/04/14 08:09:50;;;;;;;19.20;7.70;;;5.70;69.40;;;;;;5094031;28;20104;-36
2021/04/14 08:12:28;;;;;;;10.43;6.88;;;5.80;69.10;;;;;;5094126;28;20039;-38
2021/04/14 08:15:06;;;;;;;13.95;6.93;;;7.10;64.00;;;;;;5093831;28;20039;-38
2021/04/14 08:17:32;;;;;;;12.10;6.18;;;7.60;61.80;;;;;;5093591;28;20103;-37
2021/04/14 08:20:07;;;;;;;12.35;6.47;;;7.80;60.90;;;;;;5093419;28;20103;-36
2021/04/14 08:22:33;;;;;;;8.80;5.60;;;8.20;60.40;;;;;;5093473;28;20031;-37
2021/04/14 08:25:03;;;;;;;10.10;5.72;;;8.30;58.50;;;;;;5093945;28;20024;-36
2021/04/14 08:27:35;;;;;;;10.05;6.78;;;8.20;59.10;;;;;;5093793;28;20056;-36
2021/04/14 08:30:03;;;;;;;11.00;6.45;;;7.80;60.20;;;;;;5093582;28;20423;-37
2021/04/14 08:32:42;;;;;;;9.38;5.80;;;7.80;59.40;;;;;;5093742;28;20016;-37
2021/04/14 08:35:27;;;;;;;13.95;8.70;;;7.70;59.10;;;;;;5093296;28;20530;-37
2021/04/14 08:38:27;;;;;;;9.98;6.25;;;7.30;60.40;;;;;;5092795;28;20099;-37
2021/04/14 08:41:01;;;;;;;12.30;7.10;;;8.10;58.50;;;;;;5093418;28;20091;-35
2021/04/14 08:43:38;;;;;;;11.65;5.90;;;8.10;57.40;;;;;;5093353;28;20035;-36
2021/04/14 08:46:13;;;;;;;16.13;7.40;;;8.00;56.30;;;;;;5093423;28;20492;-37
2021/04/14 08:48:41;;;;;;;10.95;6.22;;;7.80;56.90;;;;;;5092839;28;20449;-38
2021/04/14 08:51:09;;;;;;;11.05;6.65;;;7.60;58.30;;;;;;5093787;28;20471;-36
2021/04/14 08:53:37;;;;;;;12.73;6.97;;;7.80;58.80;;;;;;5092888;28;20464;-36
2021/04/14 08:56:03;;;;;;;10.18;6.50;;;7.80;59.00;;;;;;5091372;28;20108;-39
2021/04/14 08:58:30;;;;;;;8.90;5.90;;;8.30;56.90;;;;;;5092727;28;20083;-37
2021/04/14 09:00:58;;;;;;;14.73;7.43;;;8.30;56.80;;;;;;5092934;28;20028;-37
2021/04/14 09:03:27;;;;;;;8.85;5.28;;;8.30;56.60;;;;;;5091897;28;20049;-37
2021/04/14 09:05:53;;;;;;;8.00;5.18;;;8.30;56.80;;;;;;5093010;28;20020;-37
2021/04/14 09:08:22;;;;;;;10.45;6.50;;;9.10;54.00;;;;;;5092690;28;20459;-36
2021/04/14 09:10:56;;;;;;;10.63;5.28;;;9.50;52.70;;;;;;5092930;28;20536;-38
2021/04/14 09:13:36;;;;;;;10.10;5.88;;;8.50;54.10;;;;;;5093037;28;20066;-38
2021/04/14 09:16:05;;;;;;;10.68;5.40;;;8.40;55.20;;;;;;5091981;28;20016;-38
2021/04/14 09:18:45;;;;;;;10.57;6.72;;;8.10;56.70;;;;;;5092496;28;20082;-38
2021/04/14 09:21:23;;;;;;;12.60;6.67;;;10.10;50.60;;;;;;5092729;28;20039;-38
2021/04/14 09:23:56;;;;;;;14.05;7.97;;;11.00;45.90;;;;;;5093146;28;20032;-38
2021/04/14 09:26:27;;;;;;;13.00;6.13;;;11.70;45.10;;;;;;5092687;28;20153;-37
2021/04/14 09:28:53;;;;;;;12.73;7.25;;;10.40;48.60;;;;;;5093113;28;20024;-39
2021/04/14 09:31:40;;;;;;;16.17;7.50;;;11.60;45.80;;;;;;5091371;28;20025;-37
2021/04/14 09:34:14;;;;;;;10.23;6.75;;;11.50;45.60;;;;;;5093648;28;20434;-38
2021/04/14 09:36:46;;;;;;;12.32;7.72;;;11.30;44.30;;;;;;5093556;28;20020;-38
2021/04/14 09:39:27;;;;;;;10.32;6.93;;;11.10;44.00;;;;;;5093113;28;20407;-37
2021/04/14 09:41:53;;;;;;;10.85;7.65;;;10.00;45.60;;;;;;5093049;28;20547;-38
2021/04/14 09:44:46;;;;;;;12.48;8.38;;;8.80;48.30;;;;;;5092443;28;20103;-37
2021/04/14 09:47:19;;;;;;;12.55;8.05;;;8.30;50.00;;;;;;5092412;28;20131;-37
2021/04/14 09:49:48;;;;;;;11.98;8.00;;;9.90;45.90;;;;;;5092600;28;20157;-37
2021/04/14 09:52:50;;;;;;;13.25;7.57;;;11.30;43.50;;;;;;5093210;28;20028;-37
2021/04/14 09:55:48;;;;;;;11.30;7.32;;;13.20;38.40;;;;;;5092288;28;20107;-39
2021/04/14 09:58:26;;;;;;;15.95;7.13;;;12.10;40.90;;;;;;5092251;28;20052;-38
2021/04/14 10:00:56;;;;;;;14.63;6.72;;;10.70;44.90;;;;;;5092298;28;20035;-36
2021/04/14 10:03:27;;;;;;;10.68;6.97;;;9.90;46.20;;;;;;5092265;28;20021;-37
2021/04/14 10:05:54;;;;;;;11.52;7.63;;;9.70;45.20;;;;;;5092745;28;20090;-37
2021/04/14 10:08:21;;;;;;;14.18;7.93;;;9.50;46.10;;;;;;5092313;28;20184;-36
2021/04/14 10:10:48;;;;;;;9.10;6.65;;;9.00;45.60;;;;;;5095774;28;20032;-36
2021/04/14 10:13:18;;;;;;;12.25;8.88;;;8.90;45.30;;;;;;5095342;28;20073;-37
2021/04/14 10:15:46;;;;;;;12.00;7.05;;;8.30;49.70;;;;;;5095599;28;20051;-38
2021/04/14 10:18:28;;;;;;;14.18;7.35;;;8.10;51.00;;;;;;5096300;28;20023;-36
2021/04/14 10:20:55;;;;;;;9.95;6.95;;;8.10;51.70;;;;;;5096299;28;20021;-37
2021/04/14 10:23:26;;;;;;;12.32;7.70;;;7.70;54.20;;;;;;5096015;28;20070;-37
2021/04/14 10:26:03;;;;;;;19.38;7.78;;;7.70;55.80;;;;;;5094535;28;20020;-36
2021/04/14 10:28:29;;;;;;;11.30;7.20;;;7.80;55.20;;;;;;5095686;28;20028;-36
2021/04/14 10:31:07;;;;;;;10.65;6.95;;;7.40;54.10;;;;;;5095862;28;20023;-37
2021/04/14 10:33:33;;;;;;;10.77;7.13;;;7.70;53.60;;;;;;5096193;28;20119;-37
2021/04/14 10:36:10;;;;;;;20.63;8.52;;;7.80;54.30;;;;;;5096156;28;20028;-38
2021/04/14 10:38:36;;;;;;;13.82;7.68;;;7.80;52.40;;;;;;5095537;28;20077;-37
2021/04/14 10:41:28;;;;;;;11.27;8.18;;;8.10;51.80;;;;;;5095890;28;20024;-36
2021/04/14 10:43:54;;;;;;;10.82;7.38;;;9.00;47.60;;;;;;5095456;28;20113;-36
2021/04/14 10:46:23;;;;;;;11.07;7.28;;;9.30;48.60;;;;;;5094678;28;20028;-36
2021/04/14 10:48:57;;;;;;;10.68;7.18;;;10.20;45.70;;;;;;5094991;28;20093;-37
2021/04/14 10:51:44;;;;;;;14.55;7.38;;;9.80;45.90;;;;;;5095317;28;20047;-36
2021/04/14 10:54:12;;;;;;;18.80;8.40;;;10.60;43.30;;;;;;5095002;28;20024;-37
2021/04/14 10:56:39;;;;;;;10.60;6.50;;;12.30;38.40;;;;;;5095533;28;20070;-36
2021/04/14 10:59:17;;;;;;;15.35;6.95;;;11.30;40.90;;;;;;5095503;28;20024;-37
2021/04/14 11:01:46;;;;;;;11.05;6.55;;;10.80;40.80;;;;;;5095206;28;20024;-36
2021/04/14 11:04:14;;;;;;;10.77;7.28;;;9.80;41.80;;;;;;5094759;28;20468;-36
2021/04/14 11:06:45;;;;;;;10.85;7.13;;;8.90;43.10;;;;;;5094994;28;20130;-37
2021/04/14 11:09:11;;;;;;;;;;;8.30;45.30;;;;;;5094952;28;20133;-36
2021/04/14 11:11:40;;;;;;;11.73;6.95;;;8.30;46.20;;;;;;5095012;28;19950;-36
2021/04/14 11:14:10;;;;;;;12.65;7.13;;;7.90;46.30;;;;;;5095809;28;20081;-37
2021/04/14 11:16:38;;;;;;;10.27;6.03;;;7.90;47.10;;;;;;5094826;28;20074;-37
2021/04/14 11:19:18;;;;;;;13.55;5.90;;;8.10;45.60;;;;;;5094551;28;20028;-37
2021/04/14 11:21:45;;;;;;;;;;;8.10;46.10;;;;;;5095219;28;20027;-36
2021/04/14 11:24:18;;;;;;;11.05;7.18;;;8.30;46.30;;;;;;5094759;28;19954;-37
2021/04/14 11:26:51;;;;;;;9.68;5.90;;;8.30;49.60;;;;;;5094508;28;20111;-36
2021/04/14 11:29:32;;;;;;;10.23;5.88;;;8.10;49.50;;;;;;5094204;28;20063;-36
2021/04/14 11:32:00;;;;;;;8.52;5.90;;;7.30;51.40;;;;;;5094889;28;20380;-38
2021/04/14 11:34:34;;;;;;;9.23;6.05;;;7.30;53.40;;;;;;5094578;28;20468;-37
2021/04/14 11:37:16;;;;;;;9.82;6.32;;;7.30;51.80;;;;;;5094910;28;20023;-36
2021/04/14 11:39:51;;;;;;;8.80;4.88;;;7.20;54.50;;;;;;5094687;28;20043;-36
2021/04/14 11:42:20;;;;;;;5.20;3.75;;;7.10;51.90;;;;;;5094315;28;20048;-37
2021/04/14 11:44:55;;;;;;;6.97;4.60;;;6.90;51.00;;;;;;5094318;28;20130;-37
2021/04/14 11:47:29;;;;;;;7.10;4.45;;;6.90;46.70;;;;;;5094280;28;20060;-38
2021/04/14 11:49:56;;;;;;;5.28;3.95;;;7.30;46.80;;;;;;5094551;28;20495;-35
2021/04/14 11:52:49;;;;;;;6.38;4.32;;;7.80;43.90;;;;;;5092918;28;20028;-37
2021/04/14 11:55:36;;;;;;;5.97;4.22;;;8.40;41.90;;;;;;5093729;28;20471;-37
2021/04/14 11:58:05;;;;;;;8.52;4.72;;;9.00;43.90;;;;;;5094429;28;20478;-36
2021/04/14 12:00:36;;;;;;;4.60;4.10;;;9.80;41.30;;;;;;5094170;28;20038;-37
2021/04/14 12:03:32;;;;;;;6.85;4.53;;;9.50;42.10;;;;;;5093955;28;20410;-37
2021/04/14 12:05:59;;;;;;;7.50;4.70;;;9.40;41.50;;;;;;5093939;28;20040;-36
2021/04/14 12:08:26;;;;;;;7.47;4.18;;;9.30;41.40;;;;;;5093889;28;20039;-37
2021/04/14 12:10:53;;;;;;;8.02;4.78;;;9.10;40.70;;;;;;5093009;28;20020;-36
2021/04/14 12:13:21;;;;;;;7.25;4.80;;;9.40;42.50;;;;;;5093812;28;20471;-37
2021/04/14 12:15:47;;;;;;;8.85;5.72;;;9.20;41.00;;;;;;5093582;28;20027;-37
2021/04/14 12:18:13;;;;;;;8.88;6.07;;;8.80;44.50;;;;;;5094071;28;20107;-37
2021/04/14 12:20:38;;;;;;;6.63;4.75;;;8.70;44.60;;;;;;5093882;28;20095;-37
2021/04/14 12:23:04;;;;;;;7.63;5.03;;;9.70;41.80;;;;;;5093494;28;20439;-38
2021/04/14 12:25:30;;;;;;;7.88;5.78;;;11.20;37.80;;;;;;5092193;28;20103;-39
2021/04/14 12:27:55;;;;;;;6.93;4.55;;;11.50;37.10;;;;;;5093351;28;20115;-37
2021/04/14 12:30:26;;;;;;;10.48;5.47;;;12.10;35.00;;;;;;5092849;28;20031;-36
2021/04/14 12:32:52;;;;;;;7.18;5.18;;;12.60;35.50;;;;;;5093753;28;20024;-36
2021/04/14 12:35:19;;;;;;;13.98;5.75;;;13.20;33.50;;;;;;5093590;28;20392;-37
2021/04/14 12:37:45;;;;;;;8.55;5.15;;;12.90;34.40;;;;;;5093783;28;20475;-37
2021/04/14 12:40:12;;;;;;;7.53;4.88;;;13.40;33.60;;;;;;5093225;28;20108;-38
2021/04/14 12:42:38;;;;;;;7.72;6.18;;;14.00;32.00;;;;;;5093702;28;20084;-37
2021/04/14 12:45:13;;;;;;;7.20;5.70;;;13.70;32.50;;;;;;5093432;28;20035;-37
2021/04/14 12:47:39;;;;;;;7.97;5.28;;;14.10;32.70;;;;;;5093112;28;20051;-37
2021/04/14 12:50:06;;;;;;;6.63;5.30;;;14.00;32.10;;;;;;5092953;28;20051;-36
2021/04/14 12:52:37;;;;;;;13.23;5.57;;;11.10;38.00;;;;;;5093279;28;20032;-37
2021/04/14 12:55:11;;;;;;;6.75;5.05;;;11.00;38.80;;;;;;5094452;28;20392;-37
2021/04/14 12:57:40;;;;;;;7.50;5.53;;;11.40;38.10;;;;;;5093150;28;20044;-37
2021/04/14 13:00:11;;;;;;;8.20;6.28;;;10.80;38.00;;;;;;5093114;28;20039;-37
2021/04/14 13:02:48;;;;;;;12.40;7.10;;;10.20;40.40;;;;;;5093031;28;20368;-36
2021/04/14 13:05:20;;;;;;;9.02;5.75;;;9.70;41.60;;;;;;5093044;28;20024;-38